Time;durP1;ratioP1;P1;durP2;ratioP2;P2;SDS_P1;SDS_P2;PMS_P1;PMS_P2;Temp;Humidity;BMP_temperature;BMP_pressure;BME280_temperature;BME280_humidity;BME280_pressure;Samples;Min_cycle;Max_cycle;Signal;HPM_P1;HPM_P2
2022/05/17 00:02:05;;;;;;;9.88;4.72;;;;;;;;;;5026454;28;20034;-73
2022/05/17 00:04:31;;;;;;;10.65;3.75;;;;;;;;;;5027609;28;20051;-73
2022/05/17 00:06:57;;;;;;;13.70;4.72;;;;;;;;;;5025441;28;20128;-73
2022/05/17 00:09:24;;;;;;;9.48;3.65;;;;;;;;;;5030849;28;20512;-73
2022/05/17 00:11:50;;;;;;;11.73;4.65;;;;;;;;;;5020674;28;20605;-73
2022/05/17 00:14:16;;;;;;;12.10;4.45;;;;;;;;;;5025187;28;20132;-73
2022/05/17 00:16:43;;;;;;;15.40;4.50;;;;;;;;;;5024737;28;20036;-73
2022/05/17 00:19:09;;;;;;;11.77;4.07;;;;;;;;;;5025881;28;20033;-73
2022/05/17 00:21:36;;;;;;;10.18;4.00;;;;;;;;;;5025699;28;20034;-73
2022/05/17 00:24:03;;;;;;;9.15;3.70;;;;;;;;;;5025031;28;20045;-73
2022/05/17 00:26:29;;;;;;;9.93;3.63;;;;;;;;;;5025112;28;20097;-73
2022/05/17 00:28:55;;;;;;;12.32;3.90;;;;;;;;;;5024927;28;20211;-73
2022/05/17 00:31:21;;;;;;;10.77;3.78;;;;;;;;;;5025475;28;20128;-73
2022/05/17 00:33:47;;;;;;;12.13;4.03;;;;;;;;;;5022446;28;20049;-73
2022/05/17 00:36:13;;;;;;;10.13;3.63;;;;;;;;;;5025497;28;20033;-73
2022/05/17 00:38:39;;;;;;;10.07;4.80;;;;;;;;;;5026532;28;20040;-73
2022/05/17 00:41:05;;;;;;;14.63;5.05;;;;;;;;;;5020935;28;20367;-73
2022/05/17 00:46:22;;;;;;;11.38;3.75;;;;;;;;;;5025266;28;20537;-73
2022/05/17 00:48:49;;;;;;;8.85;4.43;;;;;;;;;;5025427;28;20029;-73
2022/05/17 00:51:15;;;;;;;12.25;3.85;;;;;;;;;;5023513;28;20037;-73
2022/05/17 00:53:41;;;;;;;11.02;3.75;;;;;;;;;;5022398;28;20037;-73
2022/05/17 00:56:13;;;;;;;10.18;3.65;;;;;;;;;;5020365;28;20033;-73
2022/05/17 00:58:46;;;;;;;10.32;3.70;;;;;;;;;;5021414;28;20041;-73
2022/05/17 01:01:14;;;;;;;9.43;3.17;;;;;;;;;;5020707;28;20087;-73
2022/05/17 01:03:47;;;;;;;15.10;3.95;;;;;;;;;;5025144;28;20048;-73
2022/05/17 01:06:14;;;;;;;11.55;3.25;;;;;;;;;;5024368;28;20597;-73
2022/05/17 01:08:40;;;;;;;8.57;3.17;;;;;;;;;;5024597;28;20037;-73
2022/05/17 01:11:06;;;;;;;11.43;4.07;;;;;;;;;;5023516;28;20084;-73
2022/05/17 01:16:17;;;;;;;12.88;3.88;;;;;;;;;;5023301;28;20099;-73
2022/05/17 01:18:43;;;;;;;10.32;3.80;;;;;;;;;;5023493;28;20036;-73
2022/05/17 01:21:13;;;;;;;9.73;4.05;;;;;;;;;;5023088;28;20038;-73
2022/05/17 01:23:39;;;;;;;10.77;4.20;;;;;;;;;;5022392;28;20692;-73
2022/05/17 01:26:05;;;;;;;10.95;3.85;;;;;;;;;;5038615;28;20034;-73
2022/05/17 01:28:33;;;;;;;14.88;4.28;;;;;;;;;;5028063;28;20033;-73
2022/05/17 01:31:04;;;;;;;11.70;3.45;;;;;;;;;;5038624;28;20036;-73
2022/05/17 01:33:31;;;;;;;13.57;3.33;;;;;;;;;;5024203;28;20052;-73
2022/05/17 01:35:57;;;;;;;10.55;3.38;;;;;;;;;;5023472;28;20042;-74
2022/05/17 01:38:23;;;;;;;10.95;4.68;;;;;;;;;;5022642;28;20029;-73
2022/05/17 01:40:49;;;;;;;12.13;4.32;;;;;;;;;;5022363;28;20044;-73
2022/05/17 01:43:15;;;;;;;12.07;3.97;;;;;;;;;;5024249;28;20560;-73
2022/05/17 01:45:41;;;;;;;12.05;3.85;;;;;;;;;;5024229;28;20725;-73
2022/05/17 01:48:07;;;;;;;15.65;4.47;;;;;;;;;;5026108;28;20041;-73
2022/05/17 01:50:34;;;;;;;9.88;4.68;;;;;;;;;;5025363;28;20056;-73
2022/05/17 01:53:00;;;;;;;11.48;5.05;;;;;;;;;;5017460;28;20021;-73
2022/05/17 01:55:26;;;;;;;13.65;4.88;;;;;;;;;;5022834;28;20360;-73
2022/05/17 01:57:52;;;;;;;15.68;4.70;;;;;;;;;;5022543;28;20090;-73
2022/05/17 02:00:18;;;;;;;10.05;3.60;;;;;;;;;;5020858;28;20061;-73
2022/05/17 02:02:44;;;;;;;9.85;3.90;;;;;;;;;;5019555;28;20037;-73
2022/05/17 02:05:11;;;;;;;17.73;3.70;;;;;;;;;;5019643;28;20034;-73
2022/05/17 02:07:36;;;;;;;9.90;3.50;;;;;;;;;;5022513;28;20033;-73
2022/05/17 02:10:03;;;;;;;8.30;3.38;;;;;;;;;;5025147;28;20045;-73
2022/05/17 02:12:29;;;;;;;11.20;3.17;;;;;;;;;;5027554;28;20136;-73
2022/05/17 02:14:55;;;;;;;10.57;3.72;;;;;;;;;;5042031;28;20064;-73
2022/05/17 02:17:22;;;;;;;7.18;3.28;;;;;;;;;;5020881;28;20052;-73
2022/05/17 02:19:48;;;;;;;12.50;4.47;;;;;;;;;;5024966;28;20067;-73
2022/05/17 02:22:14;;;;;;;8.32;3.47;;;;;;;;;;5026157;28;20364;-73
2022/05/17 02:24:40;;;;;;;10.68;4.65;;;;;;;;;;5032992;28;20064;-73
2022/05/17 02:27:06;;;;;;;16.58;5.95;;;;;;;;;;5026747;28;20038;-73
2022/05/17 02:29:32;;;;;;;11.52;4.75;;;;;;;;;;5027359;28;20025;-73
2022/05/17 02:31:58;;;;;;;12.55;4.30;;;;;;;;;;5025360;28;20258;-73
2022/05/17 02:34:24;;;;;;;9.05;3.58;;;;;;;;;;5024214;28;20060;-73
2022/05/17 02:36:50;;;;;;;10.38;3.75;;;;;;;;;;5027093;28;20053;-73
2022/05/17 02:39:16;;;;;;;11.23;4.30;;;;;;;;;;5024037;28;20071;-73
2022/05/17 02:41:42;;;;;;;12.23;3.92;;;;;;;;;;5019008;28;20044;-73
2022/05/17 02:44:08;;;;;;;10.88;4.03;;;;;;;;;;5025924;28;20112;-73
2022/05/17 02:46:35;;;;;;;18.38;5.10;;;;;;;;;;5024878;28;20049;-73
2022/05/17 02:49:01;;;;;;;17.42;5.25;;;;;;;;;;5026698;28;20108;-73
2022/05/17 02:51:28;;;;;;;11.55;4.35;;;;;;;;;;5027071;28;20120;-73
2022/05/17 02:53:54;;;;;;;9.60;4.75;;;;;;;;;;5025272;28;20550;-73
2022/05/17 02:56:20;;;;;;;11.32;4.40;;;;;;;;;;5026554;28;20140;-73
2022/05/17 02:58:46;;;;;;;12.25;4.05;;;;;;;;;;5025578;28;20113;-73
2022/05/17 03:01:12;;;;;;;13.85;4.22;;;;;;;;;;5025506;28;20543;-73
2022/05/17 03:03:40;;;;;;;9.63;4.47;;;;;;;;;;5026209;28;20032;-73
2022/05/17 03:06:06;;;;;;;12.80;3.67;;;;;;;;;;5025360;28;20044;-73
2022/05/17 03:08:32;;;;;;;10.38;3.70;;;;;;;;;;5025817;28;20059;-73
2022/05/17 03:10:58;;;;;;;14.98;4.30;;;;;;;;;;5020709;28;20033;-73
2022/05/17 03:13:24;;;;;;;11.73;4.15;;;;;;;;;;5024819;28;20033;-73
2022/05/17 03:15:51;;;;;;;15.80;4.07;;;;;;;;;;5023473;28;20041;-73
2022/05/17 03:18:17;;;;;;;11.23;4.07;;;;;;;;;;5018866;28;20030;-73
2022/05/17 03:20:43;;;;;;;15.60;4.25;;;;;;;;;;5024339;28;20045;-73
2022/05/17 03:23:09;;;;;;;8.40;3.33;;;;;;;;;;5027687;28;20060;-73
2022/05/17 03:25:35;;;;;;;17.00;4.50;;;;;;;;;;5025884;28;20508;-73
2022/05/17 03:28:01;;;;;;;14.00;4.40;;;;;;;;;;5026162;28;20017;-73
2022/05/17 03:30:28;;;;;;;11.60;4.57;;;;;;;;;;5021323;28;20080;-74
2022/05/17 03:32:54;;;;;;;11.75;3.95;;;;;;;;;;5020224;28;20394;-73
2022/05/17 03:35:21;;;;;;;10.13;4.32;;;;;;;;;;5022253;28;20378;-73
2022/05/17 03:37:47;;;;;;;8.82;4.47;;;;;;;;;;5020226;28;20037;-74
2022/05/17 03:40:13;;;;;;;11.98;5.55;;;;;;;;;;5026422;28;20220;-73
2022/05/17 03:42:39;;;;;;;11.55;4.57;;;;;;;;;;5026195;28;20493;-73
2022/05/17 03:45:06;;;;;;;16.20;6.43;;;;;;;;;;5025873;28;20113;-73
2022/05/17 03:47:33;;;;;;;12.38;5.75;;;;;;;;;;5025742;28;20095;-73
2022/05/17 03:49:59;;;;;;;14.40;4.63;;;;;;;;;;5027925;28;20025;-72
2022/05/17 03:52:25;;;;;;;9.00;3.85;;;;;;;;;;5025585;28;20029;-73
2022/05/17 03:54:55;;;;;;;17.00;4.82;;;;;;;;;;5025391;28;20030;-73
2022/05/17 03:57:21;;;;;;;12.60;4.75;;;;;;;;;;5024491;28;20120;-73
2022/05/17 03:59:47;;;;;;;15.55;4.95;;;;;;;;;;5025788;28;20133;-73
2022/05/17 04:02:13;;;;;;;15.02;4.72;;;;;;;;;;5023738;28;20042;-73
2022/05/17 04:04:39;;;;;;;11.52;4.60;;;;;;;;;;5027554;28;20021;-73
2022/05/17 04:07:05;;;;;;;13.60;3.92;;;;;;;;;;5024513;28;20048;-72
2022/05/17 04:09:31;;;;;;;14.30;4.05;;;;;;;;;;5024093;28;20051;-73
2022/05/17 04:11:57;;;;;;;11.07;3.40;;;;;;;;;;5025332;28;20037;-73
2022/05/17 04:14:23;;;;;;;10.23;3.65;;;;;;;;;;5025805;28;20069;-73
2022/05/17 04:16:49;;;;;;;13.27;4.30;;;;;;;;;;5025075;28;20627;-73
2022/05/17 04:19:15;;;;;;;10.13;3.95;;;;;;;;;;5025635;28;20104;-73
2022/05/17 04:21:42;;;;;;;13.73;4.25;;;;;;;;;;5025211;28;20075;-73
2022/05/17 04:24:09;;;;;;;14.95;3.75;;;;;;;;;;5022407;28;20393;-73
2022/05/17 04:26:35;;;;;;;9.32;3.67;;;;;;;;;;5024789;28;20041;-73
2022/05/17 04:29:01;;;;;;;9.98;4.20;;;;;;;;;;5026423;28;20108;-73
2022/05/17 04:31:27;;;;;;;10.80;3.92;;;;;;;;;;5026744;28;20061;-73
2022/05/17 04:33:53;;;;;;;12.55;3.80;;;;;;;;;;5029752;28;20135;-73
2022/05/17 04:36:20;;;;;;;10.63;4.00;;;;;;;;;;5023844;28;20037;-72
2022/05/17 04:38:46;;;;;;;10.85;4.07;;;;;;;;;;5023554;28;20030;-73
2022/05/17 04:41:12;;;;;;;11.30;4.13;;;;;;;;;;5022031;28;20112;-73
2022/05/17 04:43:38;;;;;;;15.95;4.32;;;;;;;;;;5023181;28;20022;-72
2022/05/17 04:46:05;;;;;;;14.57;4.65;;;;;;;;;;5031082;28;20060;-73
2022/05/17 04:48:31;;;;;;;13.73;5.03;;;;;;;;;;5024559;28;20037;-73
2022/05/17 04:50:57;;;;;;;15.02;4.88;;;;;;;;;;5022876;28;20038;-73
2022/05/17 04:53:23;;;;;;;11.60;5.20;;;;;;;;;;5020437;28;20040;-73
2022/05/17 04:55:49;;;;;;;20.75;5.82;;;;;;;;;;5021298;28;20531;-73
2022/05/17 04:58:15;;;;;;;14.65;6.60;;;;;;;;;;5025585;28;20033;-73
2022/05/17 05:00:41;;;;;;;17.60;7.50;;;;;;;;;;5022721;28;20045;-73
2022/05/17 05:03:07;;;;;;;17.30;6.90;;;;;;;;;;5022209;28;20487;-73
2022/05/17 05:05:33;;;;;;;13.95;6.28;;;;;;;;;;5022601;28;20147;-73
2022/05/17 05:07:59;;;;;;;13.90;4.95;;;;;;;;;;5024658;28;20026;-73
2022/05/17 05:10:26;;;;;;;11.20;4.78;;;;;;;;;;5027380;28;20468;-73
2022/05/17 05:12:52;;;;;;;14.45;4.78;;;;;;;;;;5019908;28;20053;-73
2022/05/17 05:15:18;;;;;;;11.98;4.32;;;;;;;;;;5023475;28;20065;-73
2022/05/17 05:17:44;;;;;;;15.32;4.80;;;;;;;;;;5023176;28;20360;-73
2022/05/17 05:20:12;;;;;;;16.98;5.00;;;;;;;;;;5023539;28;20041;-73
2022/05/17 05:22:38;;;;;;;15.15;5.68;;;;;;;;;;5034787;28;20029;-73
2022/05/17 05:25:04;;;;;;;15.45;5.60;;;;;;;;;;5025141;28;20494;-73
2022/05/17 05:27:32;;;;;;;13.25;5.68;;;;;;;;;;5021778;28;20039;-73
2022/05/17 05:29:58;;;;;;;23.15;5.22;;;;;;;;;;5023418;28;20751;-73
2022/05/17 05:32:24;;;;;;;17.42;5.18;;;;;;;;;;5024575;28;20040;-73
2022/05/17 05:34:50;;;;;;;15.70;4.68;;;;;;;;;;5022569;28;20159;-73
2022/05/17 05:37:16;;;;;;;12.73;4.20;;;;;;;;;;5020932;28;20033;-73
2022/05/17 05:39:42;;;;;;;15.25;4.88;;;;;;;;;;5020934;28;20056;-73
2022/05/17 05:42:08;;;;;;;12.70;4.85;;;;;;;;;;5017930;28;20038;-73
2022/05/17 05:44:34;;;;;;;14.70;5.22;;;;;;;;;;5023490;28;20022;-73
2022/05/17 05:47:00;;;;;;;16.35;5.95;;;;;;;;;;5021991;28;20618;-73
2022/05/17 05:49:26;;;;;;;14.32;4.97;;;;;;;;;;5021719;28;20505;-74
2022/05/17 05:51:52;;;;;;;14.32;5.50;;;;;;;;;;5022215;28;20025;-73
2022/05/17 05:54:18;;;;;;;13.05;3.95;;;;;;;;;;5021113;28;20614;-73
2022/05/17 05:56:44;;;;;;;16.73;5.13;;;;;;;;;;5017383;28;20033;-73
2022/05/17 05:59:10;;;;;;;15.90;5.10;;;;;;;;;;5021676;28;20128;-73
2022/05/17 06:01:36;;;;;;;16.10;5.05;;;;;;;;;;5022786;28;20048;-73
2022/05/17 06:04:03;;;;;;;14.27;5.63;;;;;;;;;;5013967;28;20041;-73
2022/05/17 06:06:30;;;;;;;13.32;4.68;;;;;;;;;;5022743;28;20025;-74
2022/05/17 06:08:56;;;;;;;12.13;5.03;;;;;;;;;;5022217;28;20121;-73
2022/05/17 06:11:22;;;;;;;15.00;5.15;;;;;;;;;;5019587;28;20041;-73
2022/05/17 06:13:48;;;;;;;16.63;4.28;;;;;;;;;;5024129;28;20033;-73
2022/05/17 06:16:16;;;;;;;16.45;4.10;;;;;;;;;;5019701;28;20045;-73
2022/05/17 06:18:42;;;;;;;11.93;4.30;;;;;;;;;;5022486;28;20033;-73
2022/05/17 06:21:08;;;;;;;13.43;4.43;;;;;;;;;;5018056;28;20707;-73
2022/05/17 06:23:35;;;;;;;13.35;4.57;;;;;;;;;;5019747;28;20056;-73
2022/05/17 06:26:01;;;;;;;16.48;4.38;;;;;;;;;;5020235;28;20430;-74
2022/05/17 06:28:27;;;;;;;14.52;4.55;;;;;;;;;;5019325;28;20025;-74
2022/05/17 06:30:53;;;;;;;13.65;3.75;;;;;;;;;;5022479;28;20076;-73
2022/05/17 06:33:20;;;;;;;9.00;3.10;;;;;;;;;;5023089;28;20863;-74
2022/05/17 06:35:48;;;;;;;14.13;4.47;;;;;;;;;;5017597;28;20026;-74
2022/05/17 06:38:15;;;;;;;13.00;6.10;;;;;;;;;;5021985;28;20048;-73
2022/05/17 06:40:41;;;;;;;9.15;3.92;;;;;;;;;;5015788;28;20042;-73
2022/05/17 06:43:07;;;;;;;11.13;3.80;;;;;;;;;;5018498;28;20475;-74
2022/05/17 06:45:34;;;;;;;12.38;4.28;;;;;;;;;;5022321;28;20037;-73
2022/05/17 06:48:00;;;;;;;11.32;4.18;;;;;;;;;;5019619;28;20033;-73
2022/05/17 06:50:27;;;;;;;10.93;2.95;;;;;;;;;;5015384;28;20033;-73
2022/05/17 06:52:53;;;;;;;10.38;3.15;;;;;;;;;;5019757;28;20052;-73
2022/05/17 06:55:19;;;;;;;9.73;2.95;;;;;;;;;;5036201;28;20041;-73
2022/05/17 06:57:45;;;;;;;12.35;2.42;;;;;;;;;;5015905;28;20127;-73
2022/05/17 07:00:13;;;;;;;6.32;2.17;;;;;;;;;;5025838;28;20037;-74
2022/05/17 07:02:40;;;;;;;8.57;2.15;;;;;;;;;;5027808;28;20099;-73
2022/05/17 07:05:06;;;;;;;10.32;3.35;;;;;;;;;;5021579;28;20365;-73
2022/05/17 07:07:32;;;;;;;9.45;3.83;;;;;;;;;;5019563;28;20021;-74
2022/05/17 07:15:27;;;;;;;8.10;2.75;;;;;;;;;;5024456;28;20049;-74
2022/05/17 07:17:53;;;;;;;10.88;3.10;;;;;;;;;;5021125;28;20021;-74
2022/05/17 07:20:19;;;;;;;9.63;3.20;;;;;;;;;;5022308;28;20085;-72
2022/05/17 07:22:45;;;;;;;13.90;2.90;;;;;;;;;;5022924;28;20052;-72
2022/05/17 07:25:11;;;;;;;9.85;2.75;;;;;;;;;;5025364;28;20073;-73
2022/05/17 07:27:38;;;;;;;8.82;3.55;;;;;;;;;;5023573;28;20029;-74
2022/05/17 07:30:05;;;;;;;13.13;2.67;;;;;;;;;;5020615;28;20045;-74
2022/05/17 07:32:31;;;;;;;10.20;3.30;;;;;;;;;;5015612;28;20049;-73
2022/05/17 07:34:57;;;;;;;11.90;4.03;;;;;;;;;;5023184;28;20151;-73
2022/05/17 07:37:23;;;;;;;10.85;4.93;;;;;;;;;;5022947;28;20022;-74
2022/05/17 07:39:49;;;;;;;17.95;5.43;;;;;;;;;;5022273;28;20040;-74
2022/05/17 07:42:15;;;;;;;9.75;4.15;;;;;;;;;;5022013;28;20964;-73
2022/05/17 07:44:41;;;;;;;8.20;3.58;;;;;;;;;;5022551;28;20029;-74
2022/05/17 07:47:07;;;;;;;15.90;3.42;;;;;;;;;;5023078;28;20073;-74
2022/05/17 07:49:33;;;;;;;7.70;2.92;;;;;;;;;;5024639;28;20028;-73
2022/05/17 07:52:00;;;;;;;8.82;2.35;;;;;;;;;;5025078;28;20136;-73
2022/05/17 07:54:26;;;;;;;8.25;2.88;;;;;;;;;;5024241;28;20029;-73
2022/05/17 07:56:52;;;;;;;8.40;3.20;;;;;;;;;;5024126;28;20083;-73
2022/05/17 07:59:18;;;;;;;10.93;3.03;;;;;;;;;;5022763;28;20034;-73
2022/05/17 08:01:44;;;;;;;8.70;2.80;;;;;;;;;;5037693;28;20083;-73
2022/05/17 08:04:10;;;;;;;14.68;2.85;;;;;;;;;;5022456;28;20041;-73
2022/05/17 08:06:36;;;;;;;9.98;3.22;;;;;;;;;;5025347;28;20072;-73
2022/05/17 08:09:02;;;;;;;8.57;3.55;;;;;;;;;;5024541;28;20036;-73
2022/05/17 08:11:28;;;;;;;10.60;2.78;;;;;;;;;;5026132;28;20029;-73
2022/05/17 08:13:54;;;;;;;11.93;2.90;;;;;;;;;;5024853;28;20604;-73
2022/05/17 08:16:20;;;;;;;11.07;2.85;;;;;;;;;;5024539;28;20621;-73
2022/05/17 08:18:46;;;;;;;12.48;2.80;;;;;;;;;;5024631;28;20055;-73
2022/05/17 08:21:12;;;;;;;10.65;2.72;;;;;;;;;;5024487;28;20087;-73
2022/05/17 08:23:39;;;;;;;10.98;2.90;;;;;;;;;;5023653;28;20116;-73
2022/05/17 08:28:49;;;;;;;12.90;3.17;;;;;;;;;;5024113;28;20502;-73
2022/05/17 08:31:15;;;;;;;7.70;2.50;;;;;;;;;;5024824;28;20029;-73
2022/05/17 08:33:41;;;;;;;8.02;2.40;;;;;;;;;;5019605;28;20056;-73
2022/05/17 08:36:09;;;;;;;11.05;3.13;;;;;;;;;;5022556;28;20494;-73
2022/05/17 08:38:40;;;;;;;6.05;2.22;;;;;;;;;;5022772;28;20075;-73
2022/05/17 08:41:24;;;;;;;6.70;2.50;;;;;;;;;;5020378;28;20113;-73
2022/05/17 08:44:01;;;;;;;6.60;2.25;;;;;;;;;;5021821;28;20071;-73
2022/05/17 08:46:33;;;;;;;11.35;2.70;;;;;;;;;;5022049;28;20045;-73
2022/05/17 08:49:14;;;;;;;8.93;2.53;;;;;;;;;;5015418;28;20080;-73
2022/05/17 08:51:50;;;;;;;10.73;2.83;;;;;;;;;;5024468;28;20042;-73
2022/05/17 08:54:17;;;;;;;12.07;3.00;;;;;;;;;;5020858;28;20115;-73
2022/05/17 08:56:47;;;;;;;13.55;2.70;;;;;;;;;;5019807;28;20057;-73
2022/05/17 08:59:16;;;;;;;10.73;2.60;;;;;;;;;;5038649;28;20041;-73
2022/05/17 09:01:45;;;;;;;9.25;2.22;;;;;;;;;;5021108;28;20087;-72
2022/05/17 09:04:17;;;;;;;8.27;2.70;;;;;;;;;;5041085;28;20052;-73
2022/05/17 09:06:43;;;;;;;9.63;3.20;;;;;;;;;;5024082;28;20082;-73
2022/05/17 09:09:28;;;;;;;13.80;3.42;;;;;;;;;;5023327;28;20497;-73
2022/05/17 09:12:05;;;;;;;15.20;3.03;;;;;;;;;;5037607;28;20029;-73
2022/05/17 09:14:33;;;;;;;11.32;3.25;;;;;;;;;;5024750;28;20041;-73
2022/05/17 09:17:02;;;;;;;13.23;3.22;;;;;;;;;;5020562;28;20036;-73
2022/05/17 09:19:28;;;;;;;14.15;2.80;;;;;;;;;;5022307;28;20037;-73
2022/05/17 09:21:58;;;;;;;11.55;3.40;;;;;;;;;;5023456;28;20033;-73
2022/05/17 09:24:26;;;;;;;10.43;3.45;;;;;;;;;;5026503;28;20116;-73
2022/05/17 09:27:01;;;;;;;13.70;3.90;;;;;;;;;;5025430;28;20029;-73
2022/05/17 09:29:36;;;;;;;9.55;3.35;;;;;;;;;;5025510;28;20136;-72
2022/05/17 09:32:06;;;;;;;10.73;3.35;;;;;;;;;;5023734;28;20044;-72
2022/05/17 09:34:45;;;;;;;12.07;3.22;;;;;;;;;;5022405;28;20030;-73
2022/05/17 09:37:19;;;;;;;14.15;3.40;;;;;;;;;;5021318;28;20151;-72
2022/05/17 09:39:50;;;;;;;11.02;2.75;;;;;;;;;;5020632;28;20382;-72
2022/05/17 09:42:25;;;;;;;21.38;3.17;;;;;;;;;;5020878;28;20029;-72
2022/05/17 09:44:52;;;;;;;9.65;3.03;;;;;;;;;;5018795;28;20363;-73
2022/05/17 09:47:28;;;;;;;11.35;2.97;;;;;;;;;;5022680;28;20045;-73
2022/05/17 09:52:46;;;;;;;12.60;2.67;;;;;;;;;;5024449;28;20433;-72
2022/05/17 09:55:12;;;;;;;16.20;4.28;;;;;;;;;;5021134;28;20033;-72
2022/05/17 09:57:38;;;;;;;9.60;2.75;;;;;;;;;;5022904;28;20033;-72
2022/05/17 10:00:12;;;;;;;11.85;3.20;;;;;;;;;;5024366;28;20037;-72
2022/05/17 10:03:00;;;;;;;8.80;2.88;;;;;;;;;;5021194;28;20025;-72
2022/05/17 10:05:40;;;;;;;10.63;2.90;;;;;;;;;;5022016;28;20041;-72
2022/05/17 10:08:14;;;;;;;12.73;2.85;;;;;;;;;;5018648;28;20075;-72
2022/05/17 10:10:44;;;;;;;15.45;6.70;;;;;;;;;;5021541;28;20033;-72
2022/05/17 10:13:17;;;;;;;10.65;3.25;;;;;;;;;;5022151;28;20540;-72
2022/05/17 10:15:45;;;;;;;10.95;3.40;;;;;;;;;;5022409;28;20033;-72
2022/05/17 10:18:21;;;;;;;12.52;3.38;;;;;;;;;;5021218;28;20049;-72
2022/05/17 10:20:51;;;;;;;9.43;3.30;;;;;;;;;;5019328;28;20029;-72
2022/05/17 10:23:17;;;;;;;10.98;3.20;;;;;;;;;;5015702;28;20036;-72
2022/05/17 10:25:51;;;;;;;10.27;3.50;;;;;;;;;;5015215;28;20029;-72
2022/05/17 10:28:36;;;;;;;11.27;3.15;;;;;;;;;;5021090;28;20570;-72
2022/05/17 10:31:21;;;;;;;11.27;3.38;;;;;;;;;;5037419;28;20064;-73
2022/05/17 10:33:47;;;;;;;9.40;2.97;;;;;;;;;;5023098;28;20074;-72
2022/05/17 10:36:25;;;;;;;13.20;3.50;;;;;;;;;;5024755;28;20117;-72
2022/05/17 10:39:11;;;;;;;13.55;3.78;;;;;;;;;;5029004;28;20033;-72
2022/05/17 10:41:37;;;;;;;9.95;3.30;;;;;;;;;;5026084;28;20033;-72
2022/05/17 10:44:04;;;;;;;10.88;3.70;;;;;;;;;;5030425;28;20505;-72
2022/05/17 10:46:31;;;;;;;12.60;4.20;;;;;;;;;;5024810;28;20113;-72
2022/05/17 10:49:16;;;;;;;9.45;3.85;;;;;;;;;;5025955;28;20053;-72
2022/05/17 10:52:00;;;;;;;11.20;3.47;;;;;;;;;;5024850;28;20040;-72
2022/05/17 10:54:29;;;;;;;13.13;3.65;;;;;;;;;;5024323;28;20064;-72
2022/05/17 10:57:01;;;;;;;11.20;3.30;;;;;;;;;;5021988;28;20096;-73
2022/05/17 10:59:30;;;;;;;20.63;3.75;;;;;;;;;;5027203;28;20883;-72
2022/05/17 11:02:06;;;;;;;13.25;3.78;;;;;;;;;;5023923;28;20472;-72
2022/05/17 11:05:01;;;;;;;11.82;3.33;;;;;;;;;;5038401;28;20029;-72
2022/05/17 11:07:46;;;;;;;9.38;3.35;;;;;;;;;;5026096;28;20028;-73
2022/05/17 11:10:21;;;;;;;13.15;3.97;;;;;;;;;;5019565;28;20478;-72
2022/05/17 11:12:49;;;;;;;10.70;3.88;;;;;;;;;;5025082;28;20033;-72
2022/05/17 11:15:19;;;;;;;11.63;3.45;;;;;;;;;;5025803;28;20029;-73
2022/05/17 11:17:50;;;;;;;12.07;3.20;;;;;;;;;;5024239;28;20022;-72
2022/05/17 11:20:16;;;;;;;;;;;;;;;;;;5026873;28;20836;-72
2022/05/17 11:22:52;;;;;;;12.00;3.80;;;;;;;;;;5040552;28;19913;-72
2022/05/17 11:25:36;;;;;;;14.48;3.65;;;;;;;;;;5026359;28;20075;-72
2022/05/17 11:28:05;;;;;;;12.48;3.97;;;;;;;;;;5025528;28;20037;-72
2022/05/17 11:30:35;;;;;;;8.45;3.63;;;;;;;;;;5024905;28;20051;-72
2022/05/17 11:33:12;;;;;;;16.85;3.83;;;;;;;;;;5039209;28;20739;-72
2022/05/17 11:35:38;;;;;;;9.02;3.88;;;;;;;;;;5040467;28;20108;-72
2022/05/17 11:38:08;;;;;;;10.52;3.05;;;;;;;;;;5025795;28;20030;-72
2022/05/17 11:40:44;;;;;;;9.98;3.33;;;;;;;;;;5022956;28;20037;-72
2022/05/17 11:45:56;;;;;;;11.52;3.58;;;;;;;;;;5023107;28;20127;-72
2022/05/17 11:48:42;;;;;;;7.00;3.25;;;;;;;;;;5025250;28;20033;-72
2022/05/17 11:51:09;;;;;;;11.98;3.75;;;;;;;;;;5024095;28;20422;-72
2022/05/17 11:53:43;;;;;;;10.45;3.20;;;;;;;;;;5023799;28;20034;-72
2022/05/17 11:56:12;;;;;;;6.88;3.00;;;;;;;;;;5021981;28;20088;-73
2022/05/17 11:58:38;;;;;;;14.00;3.17;;;;;;;;;;5019482;28;20794;-72
2022/05/17 12:01:24;;;;;;;12.05;3.83;;;;;;;;;;5021256;28;20383;-72
2022/05/17 12:03:56;;;;;;;9.63;3.08;;;;;;;;;;5041075;28;20470;-72
2022/05/17 12:06:28;;;;;;;9.75;2.92;;;;;;;;;;5023207;28;20034;-72
2022/05/17 12:08:55;;;;;;;5.70;2.65;;;;;;;;;;5026121;28;20112;-72
2022/05/17 12:11:25;;;;;;;11.50;2.97;;;;;;;;;;5022313;28;20132;-72
2022/05/17 12:13:54;;;;;;;12.13;2.92;;;;;;;;;;5024073;28;20426;-72
2022/05/17 12:16:22;;;;;;;8.95;3.05;;;;;;;;;;5025760;28;20064;-73
2022/05/17 12:18:51;;;;;;;10.35;3.47;;;;;;;;;;5025594;28;20167;-72
2022/05/17 12:21:26;;;;;;;9.10;3.03;;;;;;;;;;5021995;28;20034;-72
2022/05/17 12:23:59;;;;;;;9.55;3.17;;;;;;;;;;5021960;28;20112;-72
2022/05/17 12:26:28;;;;;;;11.20;3.20;;;;;;;;;;5020890;28;20029;-72
2022/05/17 12:28:56;;;;;;;14.93;2.63;;;;;;;;;;5023057;28;20032;-72
2022/05/17 12:31:27;;;;;;;12.98;2.85;;;;;;;;;;5027400;28;20037;-73
2022/05/17 12:33:55;;;;;;;13.75;2.70;;;;;;;;;;5023897;28;20032;-72
2022/05/17 12:36:21;;;;;;;12.02;2.95;;;;;;;;;;5024305;28;20041;-72
2022/05/17 12:44:35;;;;;;;7.57;2.13;;;;;;;;;;5012994;28;20049;-72
2022/05/17 12:47:01;;;;;;;10.57;2.78;;;;;;;;;;5024069;28;20882;-72
2022/05/17 12:49:30;;;;;;;10.38;2.50;;;;;;;;;;5023929;28;20087;-72
2022/05/17 12:51:58;;;;;;;12.20;3.40;;;;;;;;;;5020073;28;20041;-73
2022/05/17 12:54:31;;;;;;;14.65;2.90;;;;;;;;;;5021673;28;20033;-72
2022/05/17 12:56:58;;;;;;;10.80;2.70;;;;;;;;;;5021448;28;20064;-73
2022/05/17 12:59:27;;;;;;;7.65;2.10;;;;;;;;;;5024172;28;20117;-72
2022/05/17 13:01:57;;;;;;;12.70;2.85;;;;;;;;;;5018596;28;20033;-72
2022/05/17 13:04:33;;;;;;;9.32;1.95;;;;;;;;;;5023497;28;20375;-73
2022/05/17 13:07:11;;;;;;;9.07;2.40;;;;;;;;;;5019530;28;20026;-73
2022/05/17 13:09:37;;;;;;;6.38;2.30;;;;;;;;;;5024672;28;20119;-72
2022/05/17 13:12:13;;;;;;;7.13;2.50;;;;;;;;;;5020789;28;20041;-73
2022/05/17 13:14:39;;;;;;;11.70;2.20;;;;;;;;;;5024891;28;20517;-72
2022/05/17 13:17:13;;;;;;;14.90;2.20;;;;;;;;;;5022645;28;20532;-72
2022/05/17 13:19:40;;;;;;;10.40;2.88;;;;;;;;;;5023448;28;20025;-72
2022/05/17 13:22:06;;;;;;;7.47;1.98;;;;;;;;;;5022255;28;20103;-72
2022/05/17 13:24:35;;;;;;;8.57;2.17;;;;;;;;;;5023275;28;20029;-73
2022/05/17 13:27:04;;;;;;;8.45;1.95;;;;;;;;;;5022140;28;20052;-72
2022/05/17 13:29:31;;;;;;;8.27;1.83;;;;;;;;;;5023758;28;20022;-72
2022/05/17 13:32:00;;;;;;;12.32;2.40;;;;;;;;;;5020731;28;20125;-73
2022/05/17 13:34:30;;;;;;;8.93;2.20;;;;;;;;;;5020150;28;20025;-73
2022/05/17 13:37:06;;;;;;;9.75;1.98;;;;;;;;;;5022260;28;20554;-72
2022/05/17 13:39:40;;;;;;;12.55;2.10;;;;;;;;;;5024464;28;20818;-72
2022/05/17 13:42:16;;;;;;;6.88;1.98;;;;;;;;;;5039070;28;20123;-72
2022/05/17 13:44:51;;;;;;;8.35;1.83;;;;;;;;;;5025348;28;20021;-72
2022/05/17 13:47:22;;;;;;;7.40;2.03;;;;;;;;;;5024010;28;20077;-73
2022/05/17 13:49:48;;;;;;;5.82;2.15;;;;;;;;;;5020984;28;20609;-72
2022/05/17 13:52:36;;;;;;;10.75;1.90;;;;;;;;;;5022134;28;20048;-72
2022/05/17 13:55:11;;;;;;;12.23;2.08;;;;;;;;;;5021310;28;20067;-73
2022/05/17 13:57:40;;;;;;;9.10;2.10;;;;;;;;;;5019191;28;20056;-72
2022/05/17 14:00:19;;;;;;;5.38;1.83;;;;;;;;;;5021851;28;20048;-72
2022/05/17 14:02:48;;;;;;;5.40;1.45;;;;;;;;;;5022574;28;20061;-73
2022/05/17 14:05:21;;;;;;;7.05;1.90;;;;;;;;;;5023521;28;20033;-72
2022/05/17 14:13:40;;;;;;;8.50;2.10;;;;;;;;;;5024525;28;20113;-73
2022/05/17 14:16:30;;;;;;;10.20;2.00;;;;;;;;;;5019302;28;20046;-72
2022/05/17 14:18:57;;;;;;;10.43;2.28;;;;;;;;;;5017872;28;20026;-72
2022/05/17 14:21:23;;;;;;;10.60;2.25;;;;;;;;;;5020926;28;20494;-73
2022/05/17 14:23:50;;;;;;;9.20;2.33;;;;;;;;;;5022138;28;20022;-72
2022/05/17 14:26:18;;;;;;;7.93;2.03;;;;;;;;;;5021694;28;20034;-72
2022/05/17 14:28:44;;;;;;;11.52;1.90;;;;;;;;;;5021897;28;20037;-72
2022/05/17 14:31:19;;;;;;;14.68;1.98;;;;;;;;;;5021710;28;20037;-72
2022/05/17 14:33:45;;;;;;;8.20;1.88;;;;;;;;;;5022414;28;20033;-72
2022/05/17 14:36:16;;;;;;;8.10;1.95;;;;;;;;;;5019597;28;20348;-72
2022/05/17 14:38:42;;;;;;;6.70;1.70;;;;;;;;;;5019412;28;20071;-72
2022/05/17 14:41:08;;;;;;;10.18;2.33;;;;;;;;;;5022016;28;20069;-72
2022/05/17 14:43:34;;;;;;;8.48;2.20;;;;;;;;;;5018948;28;20048;-72
2022/05/17 14:46:00;;;;;;;9.40;1.75;;;;;;;;;;5021250;28;20054;-72
2022/05/17 14:48:28;;;;;;;9.30;1.80;;;;;;;;;;5019342;28;20072;-72
2022/05/17 14:50:54;;;;;;;4.15;1.40;;;;;;;;;;5020235;28;20037;-72
2022/05/17 14:53:21;;;;;;;7.60;1.60;;;;;;;;;;5019332;28;20088;-73
2022/05/17 14:55:47;;;;;;;6.85;1.83;;;;;;;;;;5017052;28;20115;-72
2022/05/17 14:58:13;;;;;;;5.60;1.70;;;;;;;;;;5020560;28;20497;-72
2022/05/17 15:00:39;;;;;;;5.60;1.70;;;;;;;;;;5018901;28;20041;-72
2022/05/17 15:03:07;;;;;;;9.68;1.63;;;;;;;;;;5022422;28;20034;-72
2022/05/17 15:05:34;;;;;;;8.43;1.60;;;;;;;;;;5021888;28;20040;-73
2022/05/17 15:08:01;;;;;;;7.07;1.98;;;;;;;;;;5022095;28;20120;-73
2022/05/17 15:10:28;;;;;;;10.55;1.60;;;;;;;;;;5023386;28;20151;-72
2022/05/17 15:12:55;;;;;;;7.70;1.60;;;;;;;;;;5021231;28;20083;-72